< < Back
Terminal Aerodrome Forecast


Current Version              Previous Versions:   1  2  3  4  5  6  7  8  9  

Terminal Aerodrome Forecast

476
FTUS42 KGSP 011726
TAFCLT
TAF
KCLT 011726Z 0118/0218 07003KT 4SM BR OVC008
      TEMPO 0119/0121 2SM -RA BR OVC004
     FM012100 16003KT 4SM BR OVC008
     FM021000 24004KT 3SM BR OVC008
     FM021400 30004KT P6SM OVC008
     FM021600 31004KT P6SM BKN015=



Latest METAR

194
SAUS70 KWBC 020300 RRD
MTRCLT
METAR KCLT 020252Z 20004KT 1/2SM R18C/5000VP6000FT BR OVC003 04/03 A3034
RMK AO2 SFC VIS 1 1/2 SLP278 T00390028 56010


USA.gov is the U.S. government's official web portal to all federal, state and local government web resources and services.